Time;durP1;ratioP1;P1;durP2;ratioP2;P2;SDS_P1;SDS_P2;PMS_P1;PMS_P2;Temp;Humidity;BMP_temperature;BMP_pressure;BME280_temperature;BME280_humidity;BME280_pressure;Samples;Min_cycle;Max_cycle;Signal;HPM_P1;HPM_P2
2023/01/30 00:01:43;;;;;;;42.00;26.70;;;5.30;99.90;;;;;;5040576;28;20039;-82
2023/01/30 00:04:11;;;;;;;46.80;28.10;;;5.40;99.90;;;;;;5053379;28;20044;-82
2023/01/30 00:06:37;;;;;;;45.83;29.35;;;5.40;99.90;;;;;;5040265;28;20044;-82
2023/01/30 00:09:04;;;;;;;46.13;27.75;;;5.40;99.90;;;;;;5052829;28;20040;-82
2023/01/30 00:11:32;;;;;;;49.00;28.75;;;5.50;99.90;;;;;;5053776;28;20055;-82
2023/01/30 00:13:58;;;;;;;45.20;26.38;;;5.50;99.90;;;;;;5037736;28;20037;-82
2023/01/30 00:16:24;;;;;;;43.45;27.35;;;5.60;99.90;;;;;;5055856;28;20033;-81
2023/01/30 00:18:50;;;;;;;45.90;28.13;;;5.60;99.90;;;;;;5051123;28;20139;-82
2023/01/30 00:21:16;;;;;;;46.88;29.17;;;5.60;99.90;;;;;;5053053;28;20037;-82
2023/01/30 00:23:42;;;;;;;42.95;27.00;;;5.60;99.90;;;;;;5053918;28;20033;-82
2023/01/30 00:26:09;;;;;;;42.42;27.25;;;5.70;99.90;;;;;;5069140;28;20055;-82
2023/01/30 00:28:35;;;;;;;41.63;27.38;;;5.70;99.90;;;;;;5066972;28;20035;-81
2023/01/30 00:31:01;;;;;;;41.38;26.48;;;5.70;99.90;;;;;;5057770;28;20127;-81
2023/01/30 00:33:27;;;;;;;40.67;25.67;;;5.80;99.90;;;;;;5041597;28;20389;-81
2023/01/30 00:35:55;;;;;;;42.50;25.67;;;5.80;99.90;;;;;;5057940;28;20037;-81
2023/01/30 00:38:21;;;;;;;43.80;25.98;;;5.90;99.90;;;;;;5037348;28;20043;-82
2023/01/30 00:40:47;;;;;;;40.15;23.40;;;6.00;99.90;;;;;;5038279;28;20111;-82
2023/01/30 00:48:47;;;;;;;34.13;20.75;;;6.20;99.90;;;;;;5055136;28;20040;-82
2023/01/30 00:51:13;;;;;;;38.83;23.30;;;6.30;99.90;;;;;;5052682;28;20398;-82
2023/01/30 00:53:39;;;;;;;36.50;23.15;;;6.30;99.90;;;;;;5052357;28;20036;-82
2023/01/30 00:56:05;;;;;;;34.67;21.80;;;6.40;99.90;;;;;;5051953;28;20036;-82
2023/01/30 00:58:31;;;;;;;35.65;21.80;;;6.50;99.90;;;;;;5035978;28;20043;-82
2023/01/30 01:00:56;;;;;;;38.15;21.48;;;6.50;99.90;;;;;;5047820;28;20036;-82
2023/01/30 01:03:22;;;;;;;30.98;19.50;;;6.60;99.90;;;;;;5036125;28;20505;-82
2023/01/30 01:05:47;;;;;;;34.13;22.00;;;6.60;99.90;;;;;;5051797;28;20489;-82
2023/01/30 01:08:14;;;;;;;33.22;20.50;;;6.60;99.90;;;;;;5036489;28;20048;-82
2023/01/30 01:10:39;;;;;;;37.97;21.17;;;6.70;99.90;;;;;;5050365;28;20040;-82
2023/01/30 01:13:05;;;;;;;33.67;19.95;;;6.70;99.90;;;;;;5034587;28;20052;-83
2023/01/30 01:15:32;;;;;;;34.55;20.67;;;6.80;99.90;;;;;;5028526;28;20040;-82
2023/01/30 01:17:57;;;;;;;32.25;19.25;;;6.80;99.90;;;;;;5048707;28;20152;-82
2023/01/30 01:20:23;;;;;;;29.73;19.02;;;6.80;99.90;;;;;;5049251;28;20119;-82
2023/01/30 01:22:54;;;;;;;30.92;19.40;;;6.80;99.90;;;;;;5048972;28;20044;-82
2023/01/30 01:25:20;;;;;;;31.75;18.52;;;6.80;99.90;;;;;;5033706;28;20044;-82
2023/01/30 01:27:46;;;;;;;32.25;21.10;;;6.80;99.90;;;;;;5050701;28;20115;-81
2023/01/30 01:30:12;;;;;;;33.30;19.67;;;6.80;99.90;;;;;;5050262;28;20078;-82
2023/01/30 01:32:38;;;;;;;32.70;20.10;;;6.70;99.90;;;;;;5037822;28;20086;-81
2023/01/30 01:35:04;;;;;;;35.75;21.45;;;6.70;99.90;;;;;;5045251;28;20040;-82
2023/01/30 01:37:30;;;;;;;34.67;22.08;;;6.70;99.90;;;;;;5055634;28;20428;-81
2023/01/30 01:42:40;;;;;;;38.53;21.83;;;6.70;99.90;;;;;;5056224;28;20179;-81
2023/01/30 01:45:12;;;;;;;36.92;22.23;;;6.70;99.90;;;;;;5058925;28;20441;-81
2023/01/30 01:47:54;;;;;;;37.05;22.92;;;6.60;99.90;;;;;;5055488;28;20037;-81
2023/01/30 01:50:29;;;;;;;31.58;19.25;;;6.60;99.90;;;;;;5056672;28;20492;-82
2023/01/30 01:52:57;;;;;;;28.70;18.92;;;6.70;99.90;;;;;;5058672;28;20186;-82
2023/01/30 01:55:24;;;;;;;34.58;19.52;;;6.60;99.90;;;;;;5054024;28;20100;-82
2023/01/30 01:57:55;;;;;;;32.03;19.83;;;6.60;99.90;;;;;;5053482;28;20052;-81
2023/01/30 02:00:22;;;;;;;33.90;19.80;;;6.60;99.90;;;;;;5056081;28;20028;-82
2023/01/30 02:02:57;;;;;;;29.13;17.65;;;6.60;99.90;;;;;;5038896;28;20611;-82
2023/01/30 02:05:24;;;;;;;28.67;18.80;;;6.60;99.90;;;;;;5052362;28;20111;-82
2023/01/30 02:08:08;;;;;;;29.58;18.08;;;6.60;99.90;;;;;;5050745;28;20044;-82
2023/01/30 02:11:00;;;;;;;24.38;16.50;;;6.60;99.90;;;;;;5052096;28;20071;-81
2023/01/30 02:13:27;;;;;;;23.88;15.57;;;6.50;99.90;;;;;;5032702;28;20037;-82
2023/01/30 02:15:54;;;;;;;21.45;12.85;;;6.50;99.90;;;;;;5038776;28;20037;-82
2023/01/30 02:18:20;;;;;;;26.02;14.60;;;6.60;99.90;;;;;;5030996;28;20131;-81
2023/01/30 02:21:01;;;;;;;19.63;12.88;;;6.60;99.90;;;;;;5037494;28;20162;-81
2023/01/30 02:23:52;;;;;;;21.00;12.85;;;6.60;99.90;;;;;;5055807;28;20036;-81
2023/01/30 02:26:55;;;;;;;21.40;13.50;;;6.60;99.90;;;;;;5016514;28;20149;-81
2023/01/30 02:29:35;;;;;;;19.23;10.52;;;6.70;99.90;;;;;;5042053;28;20063;-81
2023/01/30 02:32:24;;;;;;;17.52;10.95;;;6.70;99.90;;;;;;5070095;28;20130;-82
2023/01/30 02:35:09;;;;;;;18.73;10.55;;;6.70;99.90;;;;;;5050163;28;20029;-81
2023/01/30 02:37:59;;;;;;;18.35;10.30;;;6.70;99.90;;;;;;5043548;28;20506;-82
2023/01/30 02:40:41;;;;;;;14.00;8.55;;;6.70;99.90;;;;;;5059547;28;20048;-82
2023/01/30 02:43:27;;;;;;;17.25;8.88;;;6.80;99.90;;;;;;5066239;28;20039;-82
2023/01/30 02:45:59;;;;;;;17.38;8.70;;;6.80;99.90;;;;;;5051106;28;20049;-82
2023/01/30 02:48:39;;;;;;;13.60;8.25;;;6.70;99.90;;;;;;5059062;28;20047;-82
2023/01/30 02:51:15;;;;;;;12.30;7.97;;;6.80;99.90;;;;;;5041080;28;20040;-82
2023/01/30 02:53:41;;;;;;;11.73;7.32;;;6.80;99.90;;;;;;5038576;28;20040;-82
2023/01/30 02:56:07;;;;;;;11.93;7.22;;;6.70;99.90;;;;;;5046230;28;20040;-82
2023/01/30 02:58:38;;;;;;;11.98;6.13;;;6.90;99.90;;;;;;5051217;28;20044;-82
2023/01/30 03:01:13;;;;;;;10.82;5.75;;;6.80;99.90;;;;;;5055355;28;20033;-82
2023/01/30 03:04:25;;;;;;;12.43;6.05;;;6.80;99.90;;;;;;5051728;28;20041;-82
2023/01/30 03:07:03;;;;;;;10.77;6.30;;;6.80;99.90;;;;;;4950844;28;20049;-82
2023/01/30 03:09:44;;;;;;;12.80;6.13;;;6.80;99.90;;;;;;4948084;28;20101;-82
2023/01/30 03:12:31;;;;;;;10.25;5.43;;;6.80;99.90;;;;;;5012010;28;20052;-82
2023/01/30 03:15:00;;;;;;;13.13;5.45;;;6.80;99.90;;;;;;5054800;28;20048;-82
2023/01/30 03:17:27;;;;;;;13.48;6.00;;;6.80;99.90;;;;;;5054817;28;20040;-82
2023/01/30 03:19:54;;;;;;;8.90;5.95;;;6.80;99.90;;;;;;5035033;28;20140;-82
2023/01/30 03:22:20;;;;;;;14.63;6.20;;;6.90;99.90;;;;;;5051144;28;20080;-82
2023/01/30 03:24:46;;;;;;;9.95;5.50;;;6.80;99.90;;;;;;5054983;28;20039;-82
2023/01/30 03:27:12;;;;;;;12.30;6.85;;;6.90;99.90;;;;;;5048129;28;20540;-82
2023/01/30 03:29:39;;;;;;;12.13;5.82;;;6.90;99.90;;;;;;5053821;28;20128;-82
2023/01/30 03:32:05;;;;;;;12.25;5.68;;;7.00;99.90;;;;;;5051947;28;20449;-82
2023/01/30 03:34:31;;;;;;;13.18;5.97;;;6.90;99.90;;;;;;5054166;28;20468;-82
2023/01/30 03:36:56;;;;;;;18.92;5.78;;;6.90;99.90;;;;;;5056454;28;20116;-82
2023/01/30 03:39:23;;;;;;;12.57;6.22;;;6.90;99.90;;;;;;5051836;28;20102;-82
2023/01/30 03:41:50;;;;;;;15.43;6.30;;;7.00;99.90;;;;;;5037638;28;20047;-82
2023/01/30 03:44:15;;;;;;;13.80;6.13;;;6.90;99.90;;;;;;5053560;28;20090;-82
2023/01/30 03:46:41;;;;;;;16.27;6.50;;;6.90;99.90;;;;;;5053373;28;20241;-82
2023/01/30 03:49:07;;;;;;;16.27;5.95;;;7.00;99.90;;;;;;5054148;28;20412;-82
2023/01/30 03:51:32;;;;;;;16.73;6.03;;;7.00;99.90;;;;;;5051547;28;20124;-82
2023/01/30 03:53:58;;;;;;;16.17;6.63;;;7.00;99.90;;;;;;5053803;28;20050;-82
2023/01/30 03:56:23;;;;;;;12.65;5.90;;;7.00;99.90;;;;;;5037241;28;20035;-82
2023/01/30 03:58:49;;;;;;;13.35;5.85;;;7.00;99.90;;;;;;5054031;28;20489;-83
2023/01/30 04:01:15;;;;;;;15.15;4.97;;;7.00;99.90;;;;;;5052451;28;20044;-82
2023/01/30 04:03:40;;;;;;;16.02;5.30;;;7.00;99.90;;;;;;5053321;28;20033;-82
2023/01/30 04:06:06;;;;;;;14.77;4.80;;;7.00;99.90;;;;;;5036050;28;20043;-82
2023/01/30 04:08:32;;;;;;;12.30;4.78;;;7.00;99.90;;;;;;5049483;28;20036;-82
2023/01/30 04:10:57;;;;;;;13.88;5.47;;;7.00;99.90;;;;;;5053714;28;20044;-82
2023/01/30 04:13:23;;;;;;;15.23;4.72;;;7.10;99.90;;;;;;5050547;28;20059;-82
2023/01/30 04:15:49;;;;;;;16.98;5.28;;;7.00;99.90;;;;;;5035011;28;20041;-82
2023/01/30 04:18:14;;;;;;;12.15;5.07;;;7.00;99.90;;;;;;5042281;28;20044;-82
2023/01/30 04:20:40;;;;;;;13.07;5.32;;;7.00;99.90;;;;;;5053124;28;20043;-82
2023/01/30 04:23:06;;;;;;;11.45;4.75;;;7.00;99.90;;;;;;5048565;28;20111;-82
2023/01/30 04:25:31;;;;;;;15.30;5.53;;;7.00;99.90;;;;;;5051749;28;20378;-82
2023/01/30 04:27:57;;;;;;;17.02;5.75;;;7.00;99.90;;;;;;5050693;28;20076;-82
2023/01/30 04:30:23;;;;;;;14.98;4.95;;;7.00;99.90;;;;;;5053417;28;20037;-83
2023/01/30 04:32:48;;;;;;;10.48;4.80;;;7.10;99.90;;;;;;5033383;28;20493;-82
2023/01/30 04:35:14;;;;;;;17.38;5.88;;;7.10;99.90;;;;;;5051009;28;20036;-82
2023/01/30 04:37:40;;;;;;;12.60;4.75;;;7.10;99.90;;;;;;5053512;28;20039;-82
2023/01/30 04:40:06;;;;;;;14.60;5.70;;;7.10;99.90;;;;;;5048558;28;20043;-82
2023/01/30 04:42:32;;;;;;;13.43;5.30;;;7.10;99.90;;;;;;5034396;28;20032;-82
2023/01/30 04:44:57;;;;;;;18.23;6.40;;;7.00;99.90;;;;;;5055400;28;20078;-82
2023/01/30 04:47:23;;;;;;;13.48;5.68;;;7.00;99.90;;;;;;5056660;28;20563;-82
2023/01/30 04:49:48;;;;;;;17.48;5.50;;;6.90;99.90;;;;;;5058107;28;20047;-82
2023/01/30 04:52:14;;;;;;;16.23;4.78;;;6.90;99.90;;;;;;5052215;28;20425;-81
2023/01/30 04:54:40;;;;;;;12.52;4.35;;;6.90;99.90;;;;;;5055643;28;20096;-82
2023/01/30 04:57:05;;;;;;;22.45;5.45;;;6.80;99.90;;;;;;5041289;28;20111;-82
2023/01/30 04:59:31;;;;;;;13.65;4.40;;;6.80;99.90;;;;;;5054601;28;20067;-82
2023/01/30 05:01:57;;;;;;;20.45;4.82;;;6.70;99.90;;;;;;5037209;28;20083;-82
2023/01/30 05:04:22;;;;;;;16.08;4.80;;;6.70;99.90;;;;;;5053207;28;20036;-82
2023/01/30 05:06:48;;;;;;;17.63;4.25;;;6.70;99.90;;;;;;5057970;28;20119;-82
2023/01/30 05:09:13;;;;;;;17.58;5.03;;;6.60;99.90;;;;;;5039622;28;20457;-82
2023/01/30 05:11:39;;;;;;;16.92;4.57;;;6.60;99.90;;;;;;5038628;28;20501;-82
2023/01/30 05:14:05;;;;;;;13.73;4.10;;;6.60;99.90;;;;;;5050618;28;20076;-83
2023/01/30 05:16:30;;;;;;;11.70;3.90;;;6.60;99.90;;;;;;5056531;28;20111;-82
2023/01/30 05:18:56;;;;;;;16.15;4.28;;;6.60;99.90;;;;;;5035901;28;20079;-82
2023/01/30 05:21:29;;;;;;;13.40;3.80;;;6.60;99.90;;;;;;5053664;28;20392;-82
2023/01/30 05:23:55;;;;;;;12.47;4.20;;;6.70;99.90;;;;;;5053599;28;20029;-82
2023/01/30 05:26:22;;;;;;;18.60;4.13;;;6.70;99.90;;;;;;5052883;28;20099;-82
2023/01/30 05:28:56;;;;;;;20.35;4.07;;;6.70;99.90;;;;;;5053215;28;20119;-81
2023/01/30 05:31:22;;;;;;;;;;;6.70;99.90;;;;;;5055152;28;20450;-82
2023/01/30 05:33:48;;;;;;;18.35;4.30;;;6.70;99.90;;;;;;5037416;28;19917;-82
2023/01/30 05:36:16;;;;;;;14.82;4.18;;;6.60;99.90;;;;;;5051824;28;20057;-82
2023/01/30 05:38:42;;;;;;;13.98;4.47;;;6.60;99.90;;;;;;5053852;28;20095;-82
2023/01/30 05:41:10;;;;;;;15.88;4.80;;;6.50;99.90;;;;;;5053799;28;20037;-82
2023/01/30 05:43:36;;;;;;;14.20;4.35;;;6.50;99.90;;;;;;5055034;28;20028;-81
2023/01/30 05:46:04;;;;;;;18.98;4.65;;;6.40;99.90;;;;;;5051972;28;20058;-82
2023/01/30 05:48:31;;;;;;;22.33;3.85;;;6.30;99.90;;;;;;5031502;28;20044;-82
2023/01/30 05:50:58;;;;;;;17.52;5.05;;;6.30;99.90;;;;;;5042531;28;20048;-82
2023/01/30 05:53:27;;;;;;;19.80;4.82;;;6.30;99.90;;;;;;5040780;28;20055;-82
2023/01/30 05:56:00;;;;;;;18.75;4.50;;;6.30;99.90;;;;;;5048808;28;20517;-82
2023/01/30 05:58:27;;;;;;;14.90;4.55;;;6.20;99.90;;;;;;5034887;28;20075;-82
2023/01/30 06:00:52;;;;;;;16.13;4.40;;;6.20;99.90;;;;;;5052940;28;20040;-82
2023/01/30 06:03:18;;;;;;;18.63;4.05;;;6.00;99.90;;;;;;5052549;28;20032;-82
2023/01/30 06:05:44;;;;;;;16.52;4.03;;;5.90;99.90;;;;;;5035655;28;20035;-82
2023/01/30 06:08:10;;;;;;;16.88;4.38;;;6.00;99.90;;;;;;5036147;28;20040;-81
2023/01/30 06:10:38;;;;;;;17.77;4.45;;;6.00;99.90;;;;;;5071257;28;20058;-82
2023/01/30 06:13:04;;;;;;;16.33;4.10;;;5.90;99.90;;;;;;5051606;28;20036;-82
2023/01/30 06:15:30;;;;;;;17.75;3.95;;;5.90;99.90;;;;;;5049219;28;20039;-82
2023/01/30 06:17:55;;;;;;;18.13;3.83;;;5.80;99.90;;;;;;5048992;28;20036;-82
2023/01/30 06:20:21;;;;;;;17.75;4.53;;;5.80;99.90;;;;;;5034350;28;20039;-82
2023/01/30 06:22:47;;;;;;;17.02;4.20;;;5.80;99.90;;;;;;5051873;28;20037;-82
2023/01/30 06:25:13;;;;;;;19.67;4.20;;;5.70;99.90;;;;;;5060108;28;20396;-82
2023/01/30 06:27:42;;;;;;;24.10;4.95;;;5.70;99.90;;;;;;5040710;28;20067;-83
2023/01/30 06:30:08;;;;;;;15.98;4.00;;;5.60;99.90;;;;;;5050610;28;20037;-81
2023/01/30 06:32:34;;;;;;;15.57;4.18;;;5.60;99.90;;;;;;5177923;22;20043;-37
2023/01/30 06:35:00;;;;;;;15.88;4.03;;;5.60;99.90;;;;;;5077606;28;20036;-37
2023/01/30 06:37:25;;;;;;;17.38;3.65;;;5.60;99.90;;;;;;5075523;28;20119;-37
2023/01/30 06:39:51;;;;;;;22.42;4.20;;;5.60;99.90;;;;;;5075111;28;20445;-38
2023/01/30 06:42:17;;;;;;;22.58;3.70;;;5.60;99.90;;;;;;5068438;28;20039;-37
2023/01/30 06:44:43;;;;;;;20.10;4.13;;;5.60;99.90;;;;;;5065133;28;20119;-37
2023/01/30 06:47:09;;;;;;;21.40;4.70;;;5.60;99.90;;;;;;5073049;28;20044;-39
2023/01/30 06:49:35;;;;;;;19.48;3.90;;;5.70;99.90;;;;;;5070992;28;20578;-37
2023/01/30 06:52:00;;;;;;;16.08;3.58;;;5.70;99.90;;;;;;5074355;28;20032;-39
2023/01/30 06:54:26;;;;;;;23.80;4.30;;;5.80;99.90;;;;;;5069224;28;20259;-38
2023/01/30 06:56:52;;;;;;;14.25;3.70;;;5.80;99.90;;;;;;5091167;28;20092;-38
2023/01/30 06:59:18;;;;;;;20.17;4.93;;;5.80;99.90;;;;;;5074541;28;20028;-37
2023/01/30 07:01:44;;;;;;;16.75;3.42;;;5.90;99.90;;;;;;5076073;28;20038;-37
2023/01/30 07:04:10;;;;;;;21.85;4.45;;;5.80;99.90;;;;;;5073062;28;20081;-37
2023/01/30 07:06:35;;;;;;;17.73;3.90;;;5.90;99.90;;;;;;5068802;28;20038;-37
2023/01/30 07:09:01;;;;;;;21.33;4.20;;;5.90;99.90;;;;;;5084088;28;20115;-38
2023/01/30 07:11:27;;;;;;;19.63;4.63;;;5.90;99.90;;;;;;5052470;28;20130;-40
2023/01/30 07:13:53;;;;;;;17.50;3.58;;;5.80;99.90;;;;;;5073523;28;20071;-40
2023/01/30 07:16:19;;;;;;;20.17;4.15;;;5.80;99.90;;;;;;5068518;28;20083;-39
2023/01/30 07:18:44;;;;;;;22.05;4.32;;;5.90;99.90;;;;;;5057098;28;20037;-39
2023/01/30 07:21:10;;;;;;;18.23;3.75;;;5.90;99.90;;;;;;5073107;28;20070;-37
2023/01/30 07:23:36;;;;;;;14.63;3.80;;;5.90;99.90;;;;;;5051486;28;20032;-40
2023/01/30 07:26:05;;;;;;;18.20;3.83;;;5.90;99.90;;;;;;5070562;28;20048;-37
2023/01/30 07:28:31;;;;;;;13.48;4.00;;;5.90;99.90;;;;;;5060870;28;20032;-37
2023/01/30 07:31:00;;;;;;;19.58;4.07;;;5.90;99.90;;;;;;5074827;28;20047;-37
2023/01/30 07:33:26;;;;;;;15.25;4.07;;;5.90;99.90;;;;;;5070230;28;20115;-39
2023/01/30 07:35:52;;;;;;;18.67;3.65;;;6.00;99.90;;;;;;5067252;28;20197;-38
2023/01/30 07:38:18;;;;;;;17.92;3.63;;;6.00;99.90;;;;;;5070482;28;20436;-41
2023/01/30 07:40:44;;;;;;;26.08;4.28;;;6.00;99.90;;;;;;5074100;28;20034;-37
2023/01/30 07:43:11;;;;;;;15.07;3.47;;;6.00;99.90;;;;;;5071067;28;20029;-38
2023/01/30 07:45:38;;;;;;;19.17;3.47;;;6.00;99.90;;;;;;5067732;28;20024;-38
2023/01/30 07:48:04;;;;;;;15.98;4.00;;;6.00;99.90;;;;;;5075025;28;20040;-40
2023/01/30 07:50:30;;;;;;;14.80;3.05;;;6.00;99.90;;;;;;5072869;28;20377;-39
2023/01/30 07:52:56;;;;;;;17.42;4.20;;;6.00;99.90;;;;;;5074613;28;20036;-38
2023/01/30 07:55:22;;;;;;;15.45;3.95;;;6.00;99.90;;;;;;5074015;28;20169;-39
2023/01/30 07:57:48;;;;;;;22.42;3.40;;;6.10;99.90;;;;;;5075094;28;20081;-39
2023/01/30 08:00:14;;;;;;;17.67;4.43;;;6.10;99.90;;;;;;5071299;28;20427;-41
2023/01/30 08:02:40;;;;;;;20.20;4.25;;;6.10;99.90;;;;;;5074797;28;20392;-37
2023/01/30 08:05:06;;;;;;;14.18;3.53;;;6.10;99.90;;;;;;5065092;28;20040;-37
2023/01/30 08:07:32;;;;;;;14.25;3.25;;;6.10;99.90;;;;;;5070273;28;20040;-37
2023/01/30 08:09:57;;;;;;;19.80;3.47;;;6.10;99.90;;;;;;5061149;28;20131;-38
2023/01/30 08:12:23;;;;;;;18.83;3.88;;;6.20;99.90;;;;;;5073805;28;20421;-39
2023/01/30 08:14:49;;;;;;;21.17;3.97;;;6.20;99.90;;;;;;5062681;28;20040;-39
2023/01/30 08:17:15;;;;;;;23.92;4.13;;;6.20;99.90;;;;;;5069809;28;20116;-37
2023/01/30 08:19:40;;;;;;;17.00;3.90;;;6.20;99.90;;;;;;5069598;28;20060;-39
2023/01/30 08:22:06;;;;;;;13.30;3.35;;;6.30;99.90;;;;;;5072006;28;20043;-40
2023/01/30 08:24:32;;;;;;;18.80;4.72;;;6.20;99.90;;;;;;5070421;28;20031;-40
2023/01/30 08:26:59;;;;;;;16.40;3.80;;;6.30;99.90;;;;;;5074488;28;20124;-41
2023/01/30 08:29:24;;;;;;;19.98;4.43;;;6.30;99.90;;;;;;5070525;28;20494;-40
2023/01/30 08:31:50;;;;;;;25.15;4.03;;;6.30;99.90;;;;;;5061942;28;20124;-41
2023/01/30 08:34:16;;;;;;;20.45;4.35;;;6.30;99.90;;;;;;5072208;28;20040;-40
2023/01/30 08:36:45;;;;;;;21.65;3.95;;;6.30;99.90;;;;;;5068867;28;20036;-40
2023/01/30 08:39:11;;;;;;;15.07;3.92;;;6.30;99.90;;;;;;5064815;28;20119;-39
2023/01/30 08:41:37;;;;;;;20.30;3.72;;;6.30;99.90;;;;;;5074229;28;20036;-39
2023/01/30 08:44:03;;;;;;;20.40;5.03;;;6.30;99.90;;;;;;5072245;28;20032;-39
2023/01/30 08:46:28;;;;;;;19.33;5.32;;;6.30;99.90;;;;;;5073076;28;20090;-38
2023/01/30 08:48:55;;;;;;;21.77;4.72;;;6.40;99.90;;;;;;5055366;28;20040;-40
2023/01/30 08:51:21;;;;;;;21.20;3.67;;;6.40;99.90;;;;;;5073683;28;20039;-39
2023/01/30 08:53:47;;;;;;;20.65;3.97;;;6.40;99.90;;;;;;5057068;28;20089;-41
2023/01/30 08:56:12;;;;;;;15.05;3.72;;;6.50;99.90;;;;;;5070289;28;20040;-41
2023/01/30 08:58:39;;;;;;;19.02;4.13;;;6.40;99.90;;;;;;5067499;28;20369;-40
2023/01/30 09:01:05;;;;;;;20.42;3.70;;;6.50;99.90;;;;;;5072682;28;20032;-41
2023/01/30 09:03:31;;;;;;;18.23;3.67;;;6.50;99.90;;;;;;5065186;28;20111;-41
2023/01/30 09:05:57;;;;;;;26.10;5.25;;;6.60;99.90;;;;;;5069303;28;20040;-40
2023/01/30 09:08:23;;;;;;;28.95;4.65;;;6.60;99.90;;;;;;5067741;28;20040;-40
2023/01/30 09:10:48;;;;;;;19.77;3.92;;;6.50;99.90;;;;;;5072864;28;20040;-41
2023/01/30 09:13:14;;;;;;;15.57;3.85;;;6.60;99.90;;;;;;5072607;28;20505;-39
2023/01/30 09:15:41;;;;;;;25.40;4.40;;;6.60;99.90;;;;;;5067505;28;20059;-40
2023/01/30 09:18:07;;;;;;;20.85;4.82;;;6.60;99.90;;;;;;5070557;28;20401;-38
2023/01/30 09:20:33;;;;;;;20.52;4.72;;;6.70;99.90;;;;;;5065139;28;20036;-38
2023/01/30 09:23:00;;;;;;;22.80;4.35;;;6.60;99.90;;;;;;5058542;28;20039;-38
2023/01/30 09:25:26;;;;;;;17.17;4.60;;;6.70;99.90;;;;;;5068217;28;20036;-37
2023/01/30 09:27:52;;;;;;;20.08;3.60;;;6.80;99.90;;;;;;5058729;28;20036;-38
2023/01/30 09:30:18;;;;;;;17.95;5.03;;;6.90;99.90;;;;;;5082251;28;20032;-39
2023/01/30 09:32:44;;;;;;;20.45;4.65;;;7.00;99.90;;;;;;5064427;28;20039;-38
2023/01/30 09:35:09;;;;;;;15.98;3.55;;;7.20;99.90;;;;;;5067210;28;20043;-38
2023/01/30 09:37:35;;;;;;;17.55;4.13;;;7.20;99.90;;;;;;5083161;28;20040;-37
2023/01/30 09:40:01;;;;;;;16.65;4.07;;;7.30;99.90;;;;;;5078631;28;20036;-38
2023/01/30 09:42:46;;;;;;;21.27;4.68;;;7.40;99.90;;;;;;5069357;28;20400;-37
2023/01/30 09:45:17;;;;;;;18.63;4.05;;;7.40;99.90;;;;;;5062377;28;20244;-37
2023/01/30 09:47:46;;;;;;;17.08;4.40;;;7.30;99.90;;;;;;5073153;28;20044;-38
2023/01/30 09:50:37;;;;;;;22.20;4.82;;;7.30;99.90;;;;;;5066913;28;20040;-38
2023/01/30 09:53:36;;;;;;;13.77;3.78;;;7.40;99.90;;;;;;5072187;28;20516;-42
2023/01/30 09:56:02;;;;;;;27.42;4.80;;;7.50;99.90;;;;;;5068539;28;20116;-38
2023/01/30 09:58:58;;;;;;;15.57;4.05;;;7.80;99.90;;;;;;5077667;28;20028;-38
2023/01/30 10:02:12;;;;;;;14.15;3.83;;;7.90;99.90;;;;;;5074857;28;20051;-39
2023/01/30 10:04:45;;;;;;;20.95;3.50;;;7.80;99.90;;;;;;5018836;28;20043;-38
2023/01/30 10:07:19;;;;;;;14.20;4.27;;;7.70;99.90;;;;;;5076366;28;20051;-43
2023/01/30 10:09:48;;;;;;;16.38;5.03;;;7.60;99.90;;;;;;5077348;28;20282;-40
2023/01/30 10:12:23;;;;;;;19.30;3.95;;;7.50;99.90;;;;;;5073851;28;20040;-38
2023/01/30 10:14:58;;;;;;;14.98;3.80;;;7.50;99.90;;;;;;5068771;28;20042;-38
2023/01/30 10:17:44;;;;;;;17.45;3.63;;;7.50;99.90;;;;;;5069817;28;20115;-38
2023/01/30 10:20:33;;;;;;;23.38;5.07;;;7.60;99.90;;;;;;5065378;28;20485;-39
2023/01/30 10:23:11;;;;;;;18.45;5.07;;;7.70;99.90;;;;;;5044030;28;20052;-38
2023/01/30 10:25:45;;;;;;;17.55;4.13;;;7.70;99.90;;;;;;5068243;28;20037;-40
2023/01/30 10:28:31;;;;;;;16.08;3.60;;;7.80;99.90;;;;;;5084891;28;20036;-38
2023/01/30 10:31:04;;;;;;;19.50;4.10;;;8.00;99.90;;;;;;5066150;28;20056;-38
2023/01/30 10:33:35;;;;;;;14.65;3.72;;;8.10;99.90;;;;;;5065080;28;20028;-38
2023/01/30 10:36:14;;;;;;;16.90;4.68;;;8.40;99.90;;;;;;5067523;28;20881;-40
2023/01/30 10:38:46;;;;;;;15.30;4.25;;;8.60;99.90;;;;;;5065876;28;20068;-37
2023/01/30 10:41:36;;;;;;;16.67;4.00;;;8.50;99.90;;;;;;5066705;28;20062;-38
2023/01/30 10:44:11;;;;;;;14.02;3.60;;;8.40;99.90;;;;;;5071224;28;20032;-37
2023/01/30 10:46:42;;;;;;;21.00;4.47;;;8.20;99.90;;;;;;5067253;28;20039;-37
2023/01/30 10:49:17;;;;;;;21.52;4.20;;;8.10;99.90;;;;;;5070922;28;20519;-42
2023/01/30 10:51:43;;;;;;;16.00;4.40;;;8.00;99.90;;;;;;5085455;28;20131;-45
2023/01/30 10:54:15;;;;;;;20.20;4.93;;;8.00;99.90;;;;;;5066478;28;20502;-37
2023/01/30 10:56:49;;;;;;;22.38;4.43;;;7.90;99.90;;;;;;5086242;28;20517;-38
2023/01/30 10:59:47;;;;;;;20.40;4.00;;;7.90;99.90;;;;;;5067301;28;20186;-39
2023/01/30 11:02:39;;;;;;;18.48;4.55;;;8.00;99.90;;;;;;5061909;28;20048;-37
2023/01/30 11:05:26;;;;;;;18.77;4.68;;;8.10;99.90;;;;;;5084596;28;20428;-38
2023/01/30 11:07:52;;;;;;;19.27;3.50;;;8.10;99.90;;;;;;5084467;28;20095;-38
2023/01/30 11:10:22;;;;;;;16.35;3.42;;;8.10;99.90;;;;;;5065309;28;20481;-38
2023/01/30 11:12:57;;;;;;;15.00;3.95;;;8.20;99.90;;;;;;5067074;28;20037;-37
2023/01/30 11:15:24;;;;;;;15.48;4.07;;;8.50;99.90;;;;;;5066421;28;20099;-38
2023/01/30 11:18:02;;;;;;;17.30;4.05;;;8.70;99.90;;;;;;5070802;28;20075;-38
2023/01/30 11:20:28;;;;;;;17.48;4.25;;;8.90;99.90;;;;;;5084657;28;20078;-38
2023/01/30 11:23:06;;;;;;;15.82;4.75;;;8.90;99.90;;;;;;5067277;28;20036;-37
2023/01/30 11:25:49;;;;;;;17.30;4.10;;;8.80;99.90;;;;;;5081804;28;20111;-37
2023/01/30 11:28:18;;;;;;;16.85;4.95;;;8.50;99.90;;;;;;5052021;28;20074;-38
2023/01/30 11:30:55;;;;;;;16.45;4.70;;;8.30;99.90;;;;;;5073961;28;20298;-38
2023/01/30 11:33:23;;;;;;;18.88;4.00;;;8.10;99.90;;;;;;5076726;28;20040;-38
2023/01/30 11:35:55;;;;;;;15.30;4.45;;;8.50;99.90;;;;;;5066081;28;20032;-38
2023/01/30 11:38:35;;;;;;;17.90;3.55;;;9.00;99.90;;;;;;5072723;28;20029;-39
2023/01/30 11:41:09;;;;;;;21.45;4.18;;;9.40;99.90;;;;;;5070284;28;20043;-43
2023/01/30 11:43:40;;;;;;;13.15;3.45;;;9.70;99.90;;;;;;5069546;28;20032;-39
2023/01/30 11:46:08;;;;;;;21.48;4.28;;;10.10;99.90;;;;;;5071883;28;20048;-38
2023/01/30 11:49:01;;;;;;;15.07;3.60;;;10.70;99.90;;;;;;5071133;28;20043;-38
2023/01/30 11:51:27;;;;;;;15.65;3.90;;;10.70;99.90;;;;;;5075821;28;20056;-39
2023/01/30 11:53:58;;;;;;;12.57;3.33;;;10.40;99.90;;;;;;5075372;28;20036;-38
2023/01/30 11:56:39;;;;;;;14.68;3.42;;;10.40;99.90;;;;;;5087915;28;20082;-38
2023/01/30 11:59:17;;;;;;;15.50;3.70;;;10.60;99.90;;;;;;5070040;28;20078;-38
2023/01/30 12:01:43;;;;;;;18.00;4.40;;;10.70;99.90;;;;;;5069109;28;20035;-38
2023/01/30 12:04:11;;;;;;;14.27;3.65;;;10.40;99.90;;;;;;5070615;28;20170;-38
2023/01/30 12:06:40;;;;;;;18.05;3.78;;;9.70;99.90;;;;;;5073964;28;20043;-38
2023/01/30 12:09:34;;;;;;;11.77;3.33;;;9.10;99.90;;;;;;5084882;28;20126;-38
2023/01/30 12:11:59;;;;;;;;;;;8.70;99.90;;;;;;5059717;28;20051;-39
2023/01/30 12:14:39;;;;;;;15.73;3.33;;;8.30;99.90;;;;;;5070688;28;19924;-39
2023/01/30 12:17:33;;;;;;;11.43;2.35;;;8.10;99.90;;;;;;5092158;28;20049;-39
2023/01/30 12:20:11;;;;;;;13.00;2.50;;;7.90;99.90;;;;;;5076421;28;20481;-38
2023/01/30 12:22:43;;;;;;;9.82;2.42;;;7.70;99.90;;;;;;5072865;28;20035;-39
2023/01/30 12:25:09;;;;;;;11.88;2.85;;;7.80;99.90;;;;;;5068264;28;20032;-39
2023/01/30 12:28:00;;;;;;;10.13;2.22;;;7.70;99.90;;;;;;5072008;28;20039;-39
2023/01/30 12:30:38;;;;;;;11.88;3.05;;;7.60;99.90;;;;;;5074501;28;20044;-38
2023/01/30 12:41:04;;;;;;;7.65;2.33;;;9.90;99.90;;;;;;1492824;25;20065;-39
2023/01/30 12:46:42;;;;;;;11.83;2.60;;;9.70;99.90;;;;;;5166312;22;20052;-84
2023/01/30 12:49:38;;;;;;;7.75;2.25;;;9.30;99.90;;;;;;5078524;28;20381;-83
2023/01/30 12:52:36;;;;;;;14.27;2.85;;;8.90;99.90;;;;;;5075961;28;20040;-83
2023/01/30 12:55:29;;;;;;;10.68;2.97;;;8.60;99.90;;;;;;5060114;28;20037;-83
2023/01/30 12:58:26;;;;;;;12.07;2.90;;;8.60;99.90;;;;;;5015567;28;20557;-84
2023/01/30 13:01:12;;;;;;;12.02;3.42;;;8.30;99.90;;;;;;5040992;28;20083;-84
2023/01/30 13:03:49;;;;;;;13.70;3.22;;;8.50;99.90;;;;;;5039095;28;20276;-84
2023/01/30 13:06:25;;;;;;;14.50;2.90;;;8.50;99.90;;;;;;5039508;28;20142;-83
2023/01/30 13:09:07;;;;;;;17.27;3.55;;;8.60;99.90;;;;;;5037956;28;20041;-83
2023/01/30 13:12:08;;;;;;;11.68;2.92;;;8.70;99.90;;;;;;5057588;28;20040;-84
2023/01/30 13:14:54;;;;;;;9.13;2.28;;;8.60;99.90;;;;;;5051239;28;20376;-84
2023/01/30 13:17:25;;;;;;;10.07;2.97;;;8.90;99.90;;;;;;5076616;28;20071;-84
2023/01/30 13:19:55;;;;;;;13.53;3.07;;;9.40;99.90;;;;;;5023762;28;20715;-84
2023/01/30 13:23:01;;;;;;;12.05;2.95;;;9.70;99.90;;;;;;5040013;28;20048;-84